sensor_id;sensor_type;location;lat;lon;timestamp;temperature;humidity
21216;DHT22;10765;50.954;5.322;2023-07-20T00:02:02;15.90;99.90
21216;DHT22;10765;50.954;5.322;2023-07-20T00:04:31;15.80;99.90
21216;DHT22;10765;50.954;5.322;2023-07-20T00:06:58;15.70;99.90
21216;DHT22;10765;50.954;5.322;2023-07-20T00:09:26;15.70;99.90
21216;DHT22;10765;50.954;5.322;2023-07-20T00:11:53;15.70;99.90
21216;DHT22;10765;50.954;5.322;2023-07-20T00:14:21;15.60;99.90
21216;DHT22;10765;50.954;5.322;2023-07-20T00:16:50;15.50;99.90
21216;DHT22;10765;50.954;5.322;2023-07-20T00:19:21;15.50;99.90
21216;DHT22;10765;50.954;5.322;2023-07-20T00:21:48;15.40;99.90
21216;DHT22;10765;50.954;5.322;2023-07-20T00:24:15;15.40;99.90
21216;DHT22;10765;50.954;5.322;2023-07-20T00:26:42;15.40;99.90
21216;DHT22;10765;50.954;5.322;2023-07-20T00:29:09;15.40;99.90
21216;DHT22;10765;50.954;5.322;2023-07-20T00:31:37;15.40;99.90
21216;DHT22;10765;50.954;5.322;2023-07-20T00:34:05;15.40;99.90
21216;DHT22;10765;50.954;5.322;2023-07-20T00:36:32;15.40;99.90
21216;DHT22;10765;50.954;5.322;2023-07-20T00:38:59;15.50;99.90
21216;DHT22;10765;50.954;5.322;2023-07-20T00:41:26;15.50;99.90
21216;DHT22;10765;50.954;5.322;2023-07-20T00:43:55;15.50;99.90
21216;DHT22;10765;50.954;5.322;2023-07-20T00:46:23;15.50;99.90
21216;DHT22;10765;50.954;5.322;2023-07-20T00:48:51;15.50;99.90
21216;DHT22;10765;50.954;5.322;2023-07-20T00:51:19;15.50;99.90
21216;DHT22;10765;50.954;5.322;2023-07-20T00:53:47;15.50;99.90
21216;DHT22;10765;50.954;5.322;2023-07-20T00:56:14;15.50;99.90
21216;DHT22;10765;50.954;5.322;2023-07-20T00:58:41;15.60;99.90
21216;DHT22;10765;50.954;5.322;2023-07-20T01:01:08;15.70;99.90
21216;DHT22;10765;50.954;5.322;2023-07-20T01:03:35;15.70;99.90
21216;DHT22;10765;50.954;5.322;2023-07-20T01:06:12;15.70;99.90
21216;DHT22;10765;50.954;5.322;2023-07-20T01:08:47;15.80;99.90
21216;DHT22;10765;50.954;5.322;2023-07-20T01:11:23;15.80;99.90
21216;DHT22;10765;50.954;5.322;2023-07-20T01:13:55;15.80;99.90
21216;DHT22;10765;50.954;5.322;2023-07-20T01:16:22;15.80;99.90
21216;DHT22;10765;50.954;5.322;2023-07-20T01:18:50;15.90;99.90
21216;DHT22;10765;50.954;5.322;2023-07-20T01:21:24;15.80;99.90
21216;DHT22;10765;50.954;5.322;2023-07-20T01:24:11;15.80;99.90
21216;DHT22;10765;50.954;5.322;2023-07-20T01:29:55;15.90;99.90
21216;DHT22;10765;50.954;5.322;2023-07-20T01:32:27;15.80;99.90
21216;DHT22;10765;50.954;5.322;2023-07-20T01:34:57;15.80;99.90
21216;DHT22;10765;50.954;5.322;2023-07-20T01:37:26;15.70;99.90
21216;DHT22;10765;50.954;5.322;2023-07-20T01:39:55;15.60;99.90
21216;DHT22;10765;50.954;5.322;2023-07-20T01:42:22;15.60;99.90
21216;DHT22;10765;50.954;5.322;2023-07-20T01:44:50;15.50;99.90
21216;DHT22;10765;50.954;5.322;2023-07-20T01:47:18;15.50;99.90
21216;DHT22;10765;50.954;5.322;2023-07-20T01:49:46;15.50;99.90
21216;DHT22;10765;50.954;5.322;2023-07-20T01:52:13;15.50;99.90
21216;DHT22;10765;50.954;5.322;2023-07-20T01:54:40;15.50;99.90
21216;DHT22;10765;50.954;5.322;2023-07-20T01:57:07;15.50;99.90
21216;DHT22;10765;50.954;5.322;2023-07-20T01:59:34;15.50;99.90
21216;DHT22;10765;50.954;5.322;2023-07-20T02:02:01;15.50;99.90
21216;DHT22;10765;50.954;5.322;2023-07-20T02:04:28;15.50;99.90
21216;DHT22;10765;50.954;5.322;2023-07-20T02:06:56;15.50;99.90
21216;DHT22;10765;50.954;5.322;2023-07-20T02:09:23;15.40;99.90
21216;DHT22;10765;50.954;5.322;2023-07-20T02:11:50;15.40;99.90
21216;DHT22;10765;50.954;5.322;2023-07-20T02:14:17;15.40;99.90
21216;DHT22;10765;50.954;5.322;2023-07-20T02:16:43;15.50;99.90
21216;DHT22;10765;50.954;5.322;2023-07-20T02:19:10;15.40;99.90
21216;DHT22;10765;50.954;5.322;2023-07-20T02:21:37;15.40;99.90
21216;DHT22;10765;50.954;5.322;2023-07-20T02:24:06;15.40;72.10
21216;DHT22;10765;50.954;5.322;2023-07-20T02:26:33;15.40;98.90
21216;DHT22;10765;50.954;5.322;2023-07-20T02:29:00;15.40;99.90
21216;DHT22;10765;50.954;5.322;2023-07-20T02:31:27;15.40;99.90
21216;DHT22;10765;50.954;5.322;2023-07-20T02:33:54;15.30;99.90
21216;DHT22;10765;50.954;5.322;2023-07-20T02:36:21;15.20;99.90
21216;DHT22;10765;50.954;5.322;2023-07-20T02:38:48;15.10;99.90
21216;DHT22;10765;50.954;5.322;2023-07-20T02:41:16;15.10;99.90
21216;DHT22;10765;50.954;5.322;2023-07-20T02:43:43;15.10;99.90
21216;DHT22;10765;50.954;5.322;2023-07-20T02:46:09;15.10;99.90
21216;DHT22;10765;50.954;5.322;2023-07-20T02:48:36;15.10;99.90
21216;DHT22;10765;50.954;5.322;2023-07-20T02:51:03;15.10;99.90
21216;DHT22;10765;50.954;5.322;2023-07-20T02:53:30;15.00;99.90
21216;DHT22;10765;50.954;5.322;2023-07-20T02:55:57;14.90;99.90
21216;DHT22;10765;50.954;5.322;2023-07-20T02:58:25;14.90;99.90
21216;DHT22;10765;50.954;5.322;2023-07-20T03:00:52;15.00;99.90
21216;DHT22;10765;50.954;5.322;2023-07-20T03:03:19;15.00;99.90
21216;DHT22;10765;50.954;5.322;2023-07-20T03:05:46;15.00;99.90
21216;DHT22;10765;50.954;5.322;2023-07-20T03:08:19;15.00;99.90
21216;DHT22;10765;50.954;5.322;2023-07-20T03:10:46;15.00;99.90
21216;DHT22;10765;50.954;5.322;2023-07-20T03:13:13;15.00;99.90
21216;DHT22;10765;50.954;5.322;2023-07-20T03:15:43;15.00;99.90
21216;DHT22;10765;50.954;5.322;2023-07-20T03:18:10;14.90;99.90
21216;DHT22;10765;50.954;5.322;2023-07-20T03:20:37;14.90;99.90
21216;DHT22;10765;50.954;5.322;2023-07-20T03:23:04;14.90;99.90
21216;DHT22;10765;50.954;5.322;2023-07-20T03:25:31;15.00;99.90
21216;DHT22;10765;50.954;5.322;2023-07-20T03:27:59;15.10;99.90
21216;DHT22;10765;50.954;5.322;2023-07-20T03:30:26;15.20;99.90
21216;DHT22;10765;50.954;5.322;2023-07-20T03:32:54;15.30;99.90
21216;DHT22;10765;50.954;5.322;2023-07-20T03:35:21;15.30;99.90
21216;DHT22;10765;50.954;5.322;2023-07-20T03:37:48;15.40;99.90
21216;DHT22;10765;50.954;5.322;2023-07-20T03:40:15;15.40;18.30
21216;DHT22;10765;50.954;5.322;2023-07-20T03:42:42;15.30;5.30
21216;DHT22;10765;50.954;5.322;2023-07-20T03:45:10;15.40;99.90
21216;DHT22;10765;50.954;5.322;2023-07-20T03:47:36;15.50;79.60
21216;DHT22;10765;50.954;5.322;2023-07-20T03:50:06;15.60;1.00
21216;DHT22;10765;50.954;5.322;2023-07-20T03:52:35;15.70;1.00
21216;DHT22;10765;50.954;5.322;2023-07-20T03:55:02;15.70;1.00
21216;DHT22;10765;50.954;5.322;2023-07-20T03:57:29;15.60;1.00
21216;DHT22;10765;50.954;5.322;2023-07-20T03:59:57;15.60;1.00
21216;DHT22;10765;50.954;5.322;2023-07-20T04:02:24;15.60;1.00
21216;DHT22;10765;50.954;5.322;2023-07-20T04:04:51;15.70;1.00
21216;DHT22;10765;50.954;5.322;2023-07-20T04:07:19;15.80;99.90
21216;DHT22;10765;50.954;5.322;2023-07-20T04:09:46;15.70;27.70
21216;DHT22;10765;50.954;5.322;2023-07-20T04:12:13;15.50;99.90
21216;DHT22;10765;50.954;5.322;2023-07-20T04:14:40;15.50;1.00
21216;DHT22;10765;50.954;5.322;2023-07-20T04:17:07;15.50;1.00
21216;DHT22;10765;50.954;5.322;2023-07-20T04:19:37;15.50;99.90
21216;DHT22;10765;50.954;5.322;2023-07-20T04:22:05;15.30;1.00
21216;DHT22;10765;50.954;5.322;2023-07-20T04:24:34;15.40;1.00
21216;DHT22;10765;50.954;5.322;2023-07-20T04:27:01;15.50;1.00
21216;DHT22;10765;50.954;5.322;2023-07-20T04:29:28;15.60;1.00
21216;DHT22;10765;50.954;5.322;2023-07-20T04:31:55;15.70;1.00
21216;DHT22;10765;50.954;5.322;2023-07-20T04:34:21;15.80;1.00
21216;DHT22;10765;50.954;5.322;2023-07-20T04:36:48;15.80;99.90
21216;DHT22;10765;50.954;5.322;2023-07-20T04:39:15;15.90;99.90
21216;DHT22;10765;50.954;5.322;2023-07-20T04:41:44;16.00;99.90
21216;DHT22;10765;50.954;5.322;2023-07-20T04:44:10;16.00;1.00
21216;DHT22;10765;50.954;5.322;2023-07-20T04:46:37;16.00;99.90
21216;DHT22;10765;50.954;5.322;2023-07-20T04:49:05;15.90;1.00
21216;DHT22;10765;50.954;5.322;2023-07-20T04:51:32;15.90;1.00
21216;DHT22;10765;50.954;5.322;2023-07-20T04:53:59;16.00;1.00
21216;DHT22;10765;50.954;5.322;2023-07-20T04:56:26;16.20;1.00
21216;DHT22;10765;50.954;5.322;2023-07-20T04:58:54;16.40;99.90
21216;DHT22;10765;50.954;5.322;2023-07-20T05:01:21;16.50;99.90
21216;DHT22;10765;50.954;5.322;2023-07-20T05:03:48;16.40;1.00
21216;DHT22;10765;50.954;5.322;2023-07-20T05:06:15;16.40;1.00
21216;DHT22;10765;50.954;5.322;2023-07-20T05:08:42;16.40;1.00
21216;DHT22;10765;50.954;5.322;2023-07-20T05:11:08;16.50;99.90
21216;DHT22;10765;50.954;5.322;2023-07-20T05:13:36;16.80;99.90
21216;DHT22;10765;50.954;5.322;2023-07-20T05:16:05;17.10;99.90
21216;DHT22;10765;50.954;5.322;2023-07-20T05:18:32;17.40;1.00
21216;DHT22;10765;50.954;5.322;2023-07-20T05:20:58;17.50;99.90
21216;DHT22;10765;50.954;5.322;2023-07-20T05:23:25;17.20;99.90
21216;DHT22;10765;50.954;5.322;2023-07-20T05:25:55;16.90;99.90
21216;DHT22;10765;50.954;5.322;2023-07-20T05:28:22;16.90;99.90
21216;DHT22;10765;50.954;5.322;2023-07-20T05:30:50;17.10;1.00
21216;DHT22;10765;50.954;5.322;2023-07-20T05:33:19;17.30;66.70
21216;DHT22;10765;50.954;5.322;2023-07-20T05:35:46;17.40;1.00
21216;DHT22;10765;50.954;5.322;2023-07-20T05:38:13;17.40;1.00
21216;DHT22;10765;50.954;5.322;2023-07-20T05:40:41;17.30;1.00
21216;DHT22;10765;50.954;5.322;2023-07-20T05:43:09;17.40;1.00
21216;DHT22;10765;50.954;5.322;2023-07-20T05:45:41;17.30;1.00
21216;DHT22;10765;50.954;5.322;2023-07-20T05:48:08;17.50;99.90
21216;DHT22;10765;50.954;5.322;2023-07-20T05:50:41;17.80;91.40
21216;DHT22;10765;50.954;5.322;2023-07-20T05:53:08;17.90;1.00
21216;DHT22;10765;50.954;5.322;2023-07-20T05:55:35;17.80;99.90
21216;DHT22;10765;50.954;5.322;2023-07-20T05:58:02;17.80;99.90
21216;DHT22;10765;50.954;5.322;2023-07-20T06:00:29;17.80;1.00
21216;DHT22;10765;50.954;5.322;2023-07-20T06:02:56;17.60;99.90
21216;DHT22;10765;50.954;5.322;2023-07-20T06:05:23;17.50;99.90
21216;DHT22;10765;50.954;5.322;2023-07-20T06:07:51;17.50;99.90
21216;DHT22;10765;50.954;5.322;2023-07-20T06:10:20;17.70;22.70
21216;DHT22;10765;50.954;5.322;2023-07-20T06:12:47;18.00;99.90
21216;DHT22;10765;50.954;5.322;2023-07-20T06:15:27;18.00;1.00
21216;DHT22;10765;50.954;5.322;2023-07-20T06:17:55;18.10;1.00
21216;DHT22;10765;50.954;5.322;2023-07-20T06:20:23;18.10;1.00
21216;DHT22;10765;50.954;5.322;2023-07-20T06:22:52;18.30;1.00
21216;DHT22;10765;50.954;5.322;2023-07-20T06:25:19;18.50;99.90
21216;DHT22;10765;50.954;5.322;2023-07-20T06:27:46;18.80;99.90
21216;DHT22;10765;50.954;5.322;2023-07-20T06:30:13;19.00;99.90
21216;DHT22;10765;50.954;5.322;2023-07-20T06:32:40;19.00;99.90
21216;DHT22;10765;50.954;5.322;2023-07-20T06:35:07;18.90;99.90
21216;DHT22;10765;50.954;5.322;2023-07-20T06:37:34;18.80;99.90
21216;DHT22;10765;50.954;5.322;2023-07-20T06:40:04;18.60;99.90
21216;DHT22;10765;50.954;5.322;2023-07-20T06:42:31;18.50;99.90
21216;DHT22;10765;50.954;5.322;2023-07-20T06:44:58;18.60;99.90
21216;DHT22;10765;50.954;5.322;2023-07-20T06:47:25;18.80;99.90
21216;DHT22;10765;50.954;5.322;2023-07-20T06:49:52;18.90;99.90
21216;DHT22;10765;50.954;5.322;2023-07-20T06:52:19;19.20;99.90
21216;DHT22;10765;50.954;5.322;2023-07-20T06:54:46;19.50;50.00
21216;DHT22;10765;50.954;5.322;2023-07-20T06:57:14;19.70;1.00
21216;DHT22;10765;50.954;5.322;2023-07-20T06:59:41;19.50;1.00
21216;DHT22;10765;50.954;5.322;2023-07-20T07:02:08;19.80;1.00
21216;DHT22;10765;50.954;5.322;2023-07-20T07:04:34;19.80;1.00
21216;DHT22;10765;50.954;5.322;2023-07-20T07:07:01;20.10;1.00
21216;DHT22;10765;50.954;5.322;2023-07-20T07:09:29;20.20;1.00
21216;DHT22;10765;50.954;5.322;2023-07-20T07:11:56;20.20;1.00
21216;DHT22;10765;50.954;5.322;2023-07-20T07:14:24;20.10;1.00
21216;DHT22;10765;50.954;5.322;2023-07-20T07:16:51;20.10;1.00
21216;DHT22;10765;50.954;5.322;2023-07-20T07:19:18;20.40;1.00
21216;DHT22;10765;50.954;5.322;2023-07-20T07:21:45;20.40;1.00
21216;DHT22;10765;50.954;5.322;2023-07-20T07:24:12;20.70;1.00
21216;DHT22;10765;50.954;5.322;2023-07-20T07:26:39;20.70;1.00
21216;DHT22;10765;50.954;5.322;2023-07-20T07:29:06;20.20;1.00
21216;DHT22;10765;50.954;5.322;2023-07-20T07:31:35;20.30;1.00
21216;DHT22;10765;50.954;5.322;2023-07-20T07:34:02;20.70;1.00
21216;DHT22;10765;50.954;5.322;2023-07-20T07:36:30;21.10;1.00
21216;DHT22;10765;50.954;5.322;2023-07-20T07:38:57;21.20;99.90
21216;DHT22;10765;50.954;5.322;2023-07-20T07:41:24;21.20;99.90
21216;DHT22;10765;50.954;5.322;2023-07-20T07:43:51;21.30;1.00
21216;DHT22;10765;50.954;5.322;2023-07-20T07:46:18;21.10;99.90
21216;DHT22;10765;50.954;5.322;2023-07-20T07:48:46;21.10;99.90
21216;DHT22;10765;50.954;5.322;2023-07-20T07:51:13;21.50;99.90
21216;DHT22;10765;50.954;5.322;2023-07-20T07:53:41;22.20;99.90
21216;DHT22;10765;50.954;5.322;2023-07-20T07:56:09;22.70;99.90
21216;DHT22;10765;50.954;5.322;2023-07-20T07:58:36;22.90;99.90
21216;DHT22;10765;50.954;5.322;2023-07-20T08:01:03;24.00;99.90
21216;DHT22;10765;50.954;5.322;2023-07-20T08:03:30;24.40;99.90
21216;DHT22;10765;50.954;5.322;2023-07-20T08:05:58;25.10;99.90
21216;DHT22;10765;50.954;5.322;2023-07-20T08:08:25;26.00;99.90
21216;DHT22;10765;50.954;5.322;2023-07-20T08:10:53;26.00;99.90
21216;DHT22;10765;50.954;5.322;2023-07-20T08:13:20;25.60;99.90
21216;DHT22;10765;50.954;5.322;2023-07-20T08:15:50;25.20;99.90
21216;DHT22;10765;50.954;5.322;2023-07-20T08:18:17;25.00;99.90
21216;DHT22;10765;50.954;5.322;2023-07-20T08:20:44;24.70;99.90
21216;DHT22;10765;50.954;5.322;2023-07-20T08:23:13;24.50;99.90
21216;DHT22;10765;50.954;5.322;2023-07-20T08:25:40;24.70;99.90
21216;DHT22;10765;50.954;5.322;2023-07-20T08:28:10;24.50;99.90
21216;DHT22;10765;50.954;5.322;2023-07-20T08:30:41;24.70;99.90
21216;DHT22;10765;50.954;5.322;2023-07-20T08:33:09;25.40;99.90
21216;DHT22;10765;50.954;5.322;2023-07-20T08:35:36;26.00;99.90
21216;DHT22;10765;50.954;5.322;2023-07-20T08:38:03;26.20;99.90
21216;DHT22;10765;50.954;5.322;2023-07-20T08:40:32;27.00;99.90
21216;DHT22;10765;50.954;5.322;2023-07-20T08:43:00;28.10;99.90
21216;DHT22;10765;50.954;5.322;2023-07-20T08:45:27;27.60;99.90
21216;DHT22;10765;50.954;5.322;2023-07-20T08:47:56;26.90;99.90
21216;DHT22;10765;50.954;5.322;2023-07-20T08:50:25;28.50;99.90
21216;DHT22;10765;50.954;5.322;2023-07-20T08:52:56;29.90;99.90
21216;DHT22;10765;50.954;5.322;2023-07-20T08:55:24;30.40;99.90
21216;DHT22;10765;50.954;5.322;2023-07-20T08:57:53;31.00;99.90
21216;DHT22;10765;50.954;5.322;2023-07-20T09:00:21;31.60;99.90
21216;DHT22;10765;50.954;5.322;2023-07-20T09:02:50;30.90;99.90
21216;DHT22;10765;50.954;5.322;2023-07-20T09:05:18;31.10;99.90
21216;DHT22;10765;50.954;5.322;2023-07-20T09:07:45;31.40;99.90
21216;DHT22;10765;50.954;5.322;2023-07-20T09:10:12;31.60;99.90
21216;DHT22;10765;50.954;5.322;2023-07-20T09:12:40;31.80;99.90
21216;DHT22;10765;50.954;5.322;2023-07-20T09:15:10;32.40;99.90
21216;DHT22;10765;50.954;5.322;2023-07-20T09:17:37;33.50;99.90
21216;DHT22;10765;50.954;5.322;2023-07-20T09:20:06;33.10;99.90
21216;DHT22;10765;50.954;5.322;2023-07-20T09:22:36;34.60;99.90
21216;DHT22;10765;50.954;5.322;2023-07-20T09:25:06;34.90;99.90
21216;DHT22;10765;50.954;5.322;2023-07-20T09:27:37;34.90;99.90
21216;DHT22;10765;50.954;5.322;2023-07-20T09:30:06;34.80;99.90
21216;DHT22;10765;50.954;5.322;2023-07-20T09:32:40;33.60;99.90
21216;DHT22;10765;50.954;5.322;2023-07-20T09:35:13;31.10;99.90
21216;DHT22;10765;50.954;5.322;2023-07-20T09:37:46;31.10;99.90
21216;DHT22;10765;50.954;5.322;2023-07-20T09:40:15;30.10;99.90
21216;DHT22;10765;50.954;5.322;2023-07-20T09:42:43;29.30;99.90
21216;DHT22;10765;50.954;5.322;2023-07-20T09:45:10;28.60;99.90
21216;DHT22;10765;50.954;5.322;2023-07-20T09:47:39;28.60;99.90
21216;DHT22;10765;50.954;5.322;2023-07-20T09:50:07;31.20;99.90
21216;DHT22;10765;50.954;5.322;2023-07-20T09:52:38;33.40;99.90
21216;DHT22;10765;50.954;5.322;2023-07-20T09:55:07;33.20;99.90
21216;DHT22;10765;50.954;5.322;2023-07-20T09:57:35;30.30;99.90
21216;DHT22;10765;50.954;5.322;2023-07-20T10:00:03;28.40;99.90
21216;DHT22;10765;50.954;5.322;2023-07-20T10:02:42;26.40;99.90
21216;DHT22;10765;50.954;5.322;2023-07-20T10:05:12;27.40;99.90
21216;DHT22;10765;50.954;5.322;2023-07-20T10:07:43;30.50;99.90
21216;DHT22;10765;50.954;5.322;2023-07-20T10:10:11;33.30;99.90
21216;DHT22;10765;50.954;5.322;2023-07-20T10:12:41;33.70;99.90
21216;DHT22;10765;50.954;5.322;2023-07-20T10:15:12;31.70;99.90
21216;DHT22;10765;50.954;5.322;2023-07-20T10:17:48;29.30;99.90
21216;DHT22;10765;50.954;5.322;2023-07-20T10:20:17;27.80;99.90
21216;DHT22;10765;50.954;5.322;2023-07-20T10:22:47;28.10;99.90
21216;DHT22;10765;50.954;5.322;2023-07-20T10:25:16;30.30;99.90
21216;DHT22;10765;50.954;5.322;2023-07-20T10:27:45;32.40;99.90
21216;DHT22;10765;50.954;5.322;2023-07-20T10:30:13;34.10;99.90
21216;DHT22;10765;50.954;5.322;2023-07-20T10:32:42;33.80;99.90
21216;DHT22;10765;50.954;5.322;2023-07-20T10:35:13;34.10;99.90
21216;DHT22;10765;50.954;5.322;2023-07-20T10:37:54;34.10;99.90
21216;DHT22;10765;50.954;5.322;2023-07-20T10:40:31;31.90;99.90
21216;DHT22;10765;50.954;5.322;2023-07-20T10:43:05;29.40;99.90
21216;DHT22;10765;50.954;5.322;2023-07-20T10:45:49;28.80;99.90
21216;DHT22;10765;50.954;5.322;2023-07-20T10:48:19;31.50;99.90
21216;DHT22;10765;50.954;5.322;2023-07-20T10:53:28;36.10;99.90
21216;DHT22;10765;50.954;5.322;2023-07-20T10:56:06;35.30;99.90
21216;DHT22;10765;50.954;5.322;2023-07-20T10:58:34;30.90;99.90
21216;DHT22;10765;50.954;5.322;2023-07-20T11:01:02;28.20;99.90
21216;DHT22;10765;50.954;5.322;2023-07-20T11:03:33;26.60;99.90
21216;DHT22;10765;50.954;5.322;2023-07-20T11:06:32;26.60;99.90
21216;DHT22;10765;50.954;5.322;2023-07-20T11:09:05;30.90;99.90
21216;DHT22;10765;50.954;5.322;2023-07-20T11:11:34;34.10;99.90
21216;DHT22;10765;50.954;5.322;2023-07-20T11:14:02;35.40;99.90
21216;DHT22;10765;50.954;5.322;2023-07-20T11:16:37;32.10;99.90
21216;DHT22;10765;50.954;5.322;2023-07-20T11:19:13;29.00;99.90
21216;DHT22;10765;50.954;5.322;2023-07-20T11:21:42;28.20;99.90
21216;DHT22;10765;50.954;5.322;2023-07-20T11:24:09;28.90;99.90
21216;DHT22;10765;50.954;5.322;2023-07-20T11:26:43;30.30;99.90
21216;DHT22;10765;50.954;5.322;2023-07-20T11:29:11;32.90;99.90
21216;DHT22;10765;50.954;5.322;2023-07-20T11:31:38;35.80;99.90
21216;DHT22;10765;50.954;5.322;2023-07-20T11:34:09;37.10;99.90
21216;DHT22;10765;50.954;5.322;2023-07-20T11:36:36;37.80;99.90
21216;DHT22;10765;50.954;5.322;2023-07-20T11:39:03;36.60;99.90
21216;DHT22;10765;50.954;5.322;2023-07-20T11:41:31;34.70;99.90
21216;DHT22;10765;50.954;5.322;2023-07-20T11:43:58;33.80;99.90
21216;DHT22;10765;50.954;5.322;2023-07-20T11:46:25;33.80;99.90
21216;DHT22;10765;50.954;5.322;2023-07-20T11:48:57;34.70;99.90
21216;DHT22;10765;50.954;5.322;2023-07-20T11:51:26;36.20;99.90
21216;DHT22;10765;50.954;5.322;2023-07-20T11:53:54;37.70;99.90
21216;DHT22;10765;50.954;5.322;2023-07-20T11:56:22;37.40;99.90
21216;DHT22;10765;50.954;5.322;2023-07-20T11:58:49;38.30;99.90
21216;DHT22;10765;50.954;5.322;2023-07-20T12:01:17;38.20;99.90
21216;DHT22;10765;50.954;5.322;2023-07-20T12:03:48;36.80;99.90
21216;DHT22;10765;50.954;5.322;2023-07-20T12:06:15;35.40;99.90
21216;DHT22;10765;50.954;5.322;2023-07-20T12:08:44;33.60;99.90
21216;DHT22;10765;50.954;5.322;2023-07-20T12:11:11;31.50;99.90
21216;DHT22;10765;50.954;5.322;2023-07-20T12:13:39;32.60;99.90
21216;DHT22;10765;50.954;5.322;2023-07-20T12:16:09;32.70;99.90
21216;DHT22;10765;50.954;5.322;2023-07-20T12:18:37;34.20;99.90
21216;DHT22;10765;50.954;5.322;2023-07-20T12:21:06;34.00;99.90
21216;DHT22;10765;50.954;5.322;2023-07-20T12:23:37;32.40;99.90
21216;DHT22;10765;50.954;5.322;2023-07-20T12:26:08;32.60;99.90
21216;DHT22;10765;50.954;5.322;2023-07-20T12:28:39;32.20;99.90
21216;DHT22;10765;50.954;5.322;2023-07-20T12:31:07;31.90;99.90
21216;DHT22;10765;50.954;5.322;2023-07-20T12:33:35;35.30;99.90
21216;DHT22;10765;50.954;5.322;2023-07-20T12:36:02;36.40;99.90
21216;DHT22;10765;50.954;5.322;2023-07-20T12:38:29;36.00;99.90
21216;DHT22;10765;50.954;5.322;2023-07-20T12:40:57;34.40;99.90
21216;DHT22;10765;50.954;5.322;2023-07-20T12:43:26;34.10;99.90
21216;DHT22;10765;50.954;5.322;2023-07-20T12:45:54;35.30;99.90
21216;DHT22;10765;50.954;5.322;2023-07-20T12:48:21;36.10;99.90
21216;DHT22;10765;50.954;5.322;2023-07-20T12:50:48;34.20;99.90
21216;DHT22;10765;50.954;5.322;2023-07-20T12:53:15;33.20;99.90
21216;DHT22;10765;50.954;5.322;2023-07-20T12:55:42;32.90;99.90
21216;DHT22;10765;50.954;5.322;2023-07-20T12:58:11;32.30;99.90
21216;DHT22;10765;50.954;5.322;2023-07-20T13:00:40;31.40;99.90
21216;DHT22;10765;50.954;5.322;2023-07-20T13:03:07;30.30;99.90
21216;DHT22;10765;50.954;5.322;2023-07-20T13:05:34;29.60;99.90
21216;DHT22;10765;50.954;5.322;2023-07-20T13:08:01;29.10;99.90
21216;DHT22;10765;50.954;5.322;2023-07-20T13:10:28;28.20;99.90
21216;DHT22;10765;50.954;5.322;2023-07-20T13:12:55;27.90;99.90
21216;DHT22;10765;50.954;5.322;2023-07-20T13:15:24;27.80;99.90
21216;DHT22;10765;50.954;5.322;2023-07-20T13:17:57;27.60;99.90
21216;DHT22;10765;50.954;5.322;2023-07-20T13:20:26;27.90;99.90
21216;DHT22;10765;50.954;5.322;2023-07-20T13:22:53;28.10;99.90
21216;DHT22;10765;50.954;5.322;2023-07-20T13:25:20;28.40;99.90
21216;DHT22;10765;50.954;5.322;2023-07-20T13:27:47;28.20;99.90
21216;DHT22;10765;50.954;5.322;2023-07-20T13:30:14;28.40;99.90
21216;DHT22;10765;50.954;5.322;2023-07-20T13:32:43;28.20;99.90
21216;DHT22;10765;50.954;5.322;2023-07-20T13:35:11;28.80;99.90
21216;DHT22;10765;50.954;5.322;2023-07-20T13:37:38;31.10;99.90
21216;DHT22;10765;50.954;5.322;2023-07-20T13:40:06;31.40;99.90
21216;DHT22;10765;50.954;5.322;2023-07-20T13:42:37;29.70;99.90
21216;DHT22;10765;50.954;5.322;2023-07-20T13:45:06;30.30;99.90
21216;DHT22;10765;50.954;5.322;2023-07-20T13:47:34;30.30;99.90
21216;DHT22;10765;50.954;5.322;2023-07-20T13:50:01;29.90;99.90
21216;DHT22;10765;50.954;5.322;2023-07-20T13:52:29;29.50;99.90
21216;DHT22;10765;50.954;5.322;2023-07-20T13:54:56;29.20;99.90
21216;DHT22;10765;50.954;5.322;2023-07-20T13:57:23;29.30;99.90
21216;DHT22;10765;50.954;5.322;2023-07-20T13:59:49;28.40;99.90
21216;DHT22;10765;50.954;5.322;2023-07-20T14:02:16;28.50;99.90
21216;DHT22;10765;50.954;5.322;2023-07-20T14:04:43;28.50;99.90
21216;DHT22;10765;50.954;5.322;2023-07-20T14:07:10;28.60;99.90
21216;DHT22;10765;50.954;5.322;2023-07-20T14:09:40;27.90;99.90
21216;DHT22;10765;50.954;5.322;2023-07-20T14:12:07;27.80;99.90
21216;DHT22;10765;50.954;5.322;2023-07-20T14:14:36;27.60;99.90
21216;DHT22;10765;50.954;5.322;2023-07-20T14:17:04;27.90;99.90
21216;DHT22;10765;50.954;5.322;2023-07-20T14:19:31;27.90;99.90
21216;DHT22;10765;50.954;5.322;2023-07-20T14:21:58;27.50;99.90
21216;DHT22;10765;50.954;5.322;2023-07-20T14:24:25;27.60;99.90
21216;DHT22;10765;50.954;5.322;2023-07-20T14:26:53;27.30;99.90
21216;DHT22;10765;50.954;5.322;2023-07-20T14:29:21;27.30;99.90
21216;DHT22;10765;50.954;5.322;2023-07-20T14:31:48;27.10;99.90
21216;DHT22;10765;50.954;5.322;2023-07-20T14:34:16;27.00;99.90
21216;DHT22;10765;50.954;5.322;2023-07-20T14:36:44;27.20;99.90
21216;DHT22;10765;50.954;5.322;2023-07-20T14:39:11;27.00;99.90
21216;DHT22;10765;50.954;5.322;2023-07-20T14:41:38;26.90;99.90
21216;DHT22;10765;50.954;5.322;2023-07-20T14:44:06;26.60;99.90
21216;DHT22;10765;50.954;5.322;2023-07-20T14:46:33;26.20;99.90
21216;DHT22;10765;50.954;5.322;2023-07-20T14:49:00;26.20;99.90
21216;DHT22;10765;50.954;5.322;2023-07-20T14:51:30;26.40;99.90
21216;DHT22;10765;50.954;5.322;2023-07-20T14:53:58;26.60;99.90
21216;DHT22;10765;50.954;5.322;2023-07-20T14:56:26;26.70;99.90
21216;DHT22;10765;50.954;5.322;2023-07-20T14:58:53;26.70;99.90
21216;DHT22;10765;50.954;5.322;2023-07-20T15:01:21;26.50;99.90
21216;DHT22;10765;50.954;5.322;2023-07-20T15:03:48;26.40;99.90
21216;DHT22;10765;50.954;5.322;2023-07-20T15:06:18;26.60;99.90
21216;DHT22;10765;50.954;5.322;2023-07-20T15:08:46;26.90;99.90
21216;DHT22;10765;50.954;5.322;2023-07-20T15:11:13;26.70;99.90
21216;DHT22;10765;50.954;5.322;2023-07-20T15:13:40;26.40;99.90
21216;DHT22;10765;50.954;5.322;2023-07-20T15:16:08;26.20;99.90
21216;DHT22;10765;50.954;5.322;2023-07-20T15:18:37;25.70;99.90
21216;DHT22;10765;50.954;5.322;2023-07-20T15:21:04;25.30;99.90
21216;DHT22;10765;50.954;5.322;2023-07-20T15:23:31;25.30;99.90
21216;DHT22;10765;50.954;5.322;2023-07-20T15:25:58;25.50;99.90
21216;DHT22;10765;50.954;5.322;2023-07-20T15:28:25;25.60;99.90
21216;DHT22;10765;50.954;5.322;2023-07-20T15:30:59;25.50;99.90
21216;DHT22;10765;50.954;5.322;2023-07-20T15:33:26;25.60;99.90
21216;DHT22;10765;50.954;5.322;2023-07-20T15:35:54;25.30;99.90
21216;DHT22;10765;50.954;5.322;2023-07-20T15:38:21;25.10;99.90
21216;DHT22;10765;50.954;5.322;2023-07-20T15:40:48;25.10;99.90
21216;DHT22;10765;50.954;5.322;2023-07-20T15:43:15;25.10;99.90
21216;DHT22;10765;50.954;5.322;2023-07-20T15:45:46;25.10;99.90